sensor_id;sensor_type;location;lat;lon;timestamp;P1;durP1;ratioP1;P2;durP2;ratioP2
44428;SDS011;30134;47.866;-4.222;2023-07-13T00:00:25;6.10;;;1.95;;
44428;SDS011;30134;47.866;-4.222;2023-07-13T00:02:51;8.32;;;2.10;;
44428;SDS011;30134;47.866;-4.222;2023-07-13T00:05:23;6.38;;;2.13;;
44428;SDS011;30134;47.866;-4.222;2023-07-13T00:07:50;6.35;;;2.05;;
44428;SDS011;30134;47.866;-4.222;2023-07-13T00:10:16;14.95;;;6.85;;
44428;SDS011;30134;47.866;-4.222;2023-07-13T00:12:43;18.02;;;10.05;;
44428;SDS011;30134;47.866;-4.222;2023-07-13T00:15:12;16.17;;;10.25;;
44428;SDS011;30134;47.866;-4.222;2023-07-13T00:17:41;13.15;;;7.65;;
44428;SDS011;30134;47.866;-4.222;2023-07-13T00:20:11;12.15;;;6.38;;
44428;SDS011;30134;47.866;-4.222;2023-07-13T00:22:37;10.43;;;5.00;;
44428;SDS011;30134;47.866;-4.222;2023-07-13T00:25:04;6.53;;;4.38;;
44428;SDS011;30134;47.866;-4.222;2023-07-13T00:27:31;9.18;;;4.68;;
44428;SDS011;30134;47.866;-4.222;2023-07-13T00:29:57;9.52;;;5.28;;
44428;SDS011;30134;47.866;-4.222;2023-07-13T00:32:24;7.65;;;4.20;;
44428;SDS011;30134;47.866;-4.222;2023-07-13T00:34:51;6.97;;;4.03;;
44428;SDS011;30134;47.866;-4.222;2023-07-13T00:37:17;7.00;;;4.05;;
44428;SDS011;30134;47.866;-4.222;2023-07-13T00:39:44;7.93;;;4.03;;
44428;SDS011;30134;47.866;-4.222;2023-07-13T00:42:10;6.32;;;3.50;;
44428;SDS011;30134;47.866;-4.222;2023-07-13T00:47:55;15.75;;;9.82;;
44428;SDS011;30134;47.866;-4.222;2023-07-13T00:50:22;6.78;;;4.00;;
44428;SDS011;30134;47.866;-4.222;2023-07-13T00:52:50;9.82;;;3.95;;
44428;SDS011;30134;47.866;-4.222;2023-07-13T00:55:20;5.43;;;2.83;;
44428;SDS011;30134;47.866;-4.222;2023-07-13T00:57:47;6.60;;;3.13;;
44428;SDS011;30134;47.866;-4.222;2023-07-13T01:00:14;4.93;;;3.30;;
44428;SDS011;30134;47.866;-4.222;2023-07-13T01:02:42;9.15;;;3.55;;
44428;SDS011;30134;47.866;-4.222;2023-07-13T01:05:14;6.63;;;3.35;;
44428;SDS011;30134;47.866;-4.222;2023-07-13T01:07:43;7.25;;;3.30;;
44428;SDS011;30134;47.866;-4.222;2023-07-13T01:10:11;6.57;;;3.28;;
44428;SDS011;30134;47.866;-4.222;2023-07-13T01:12:38;6.43;;;3.13;;
44428;SDS011;30134;47.866;-4.222;2023-07-13T01:15:06;5.15;;;2.90;;
44428;SDS011;30134;47.866;-4.222;2023-07-13T01:17:58;7.35;;;2.90;;
44428;SDS011;30134;47.866;-4.222;2023-07-13T01:20:24;4.85;;;2.55;;
44428;SDS011;30134;47.866;-4.222;2023-07-13T01:22:50;5.38;;;2.60;;
44428;SDS011;30134;47.866;-4.222;2023-07-13T01:25:16;6.22;;;2.95;;
44428;SDS011;30134;47.866;-4.222;2023-07-13T01:27:43;5.85;;;2.33;;
44428;SDS011;30134;47.866;-4.222;2023-07-13T01:30:10;5.15;;;2.58;;
44428;SDS011;30134;47.866;-4.222;2023-07-13T01:32:36;6.70;;;2.65;;
44428;SDS011;30134;47.866;-4.222;2023-07-13T01:35:02;7.68;;;3.15;;
44428;SDS011;30134;47.866;-4.222;2023-07-13T01:37:29;5.65;;;2.72;;
44428;SDS011;30134;47.866;-4.222;2023-07-13T01:39:58;6.45;;;2.60;;
44428;SDS011;30134;47.866;-4.222;2023-07-13T01:42:25;4.30;;;2.67;;
44428;SDS011;30134;47.866;-4.222;2023-07-13T01:44:51;6.38;;;2.83;;
44428;SDS011;30134;47.866;-4.222;2023-07-13T01:47:17;3.45;;;2.20;;
44428;SDS011;30134;47.866;-4.222;2023-07-13T01:49:43;4.45;;;2.20;;
44428;SDS011;30134;47.866;-4.222;2023-07-13T01:52:11;5.47;;;2.42;;
44428;SDS011;30134;47.866;-4.222;2023-07-13T01:54:37;6.25;;;2.80;;
44428;SDS011;30134;47.866;-4.222;2023-07-13T01:57:03;4.03;;;2.03;;
44428;SDS011;30134;47.866;-4.222;2023-07-13T01:59:29;9.02;;;2.60;;
44428;SDS011;30134;47.866;-4.222;2023-07-13T02:01:55;4.85;;;2.58;;
44428;SDS011;30134;47.866;-4.222;2023-07-13T02:04:21;2.72;;;2.15;;
44428;SDS011;30134;47.866;-4.222;2023-07-13T02:06:47;3.47;;;1.95;;
44428;SDS011;30134;47.866;-4.222;2023-07-13T02:09:14;4.43;;;2.30;;
44428;SDS011;30134;47.866;-4.222;2023-07-13T02:11:40;3.78;;;2.28;;
44428;SDS011;30134;47.866;-4.222;2023-07-13T02:14:06;4.75;;;2.20;;
44428;SDS011;30134;47.866;-4.222;2023-07-13T02:16:32;5.65;;;2.10;;
44428;SDS011;30134;47.866;-4.222;2023-07-13T02:18:58;4.05;;;2.25;;
44428;SDS011;30134;47.866;-4.222;2023-07-13T02:21:25;6.13;;;2.58;;
44428;SDS011;30134;47.866;-4.222;2023-07-13T02:23:51;4.93;;;2.35;;
44428;SDS011;30134;47.866;-4.222;2023-07-13T02:26:24;4.57;;;2.13;;
44428;SDS011;30134;47.866;-4.222;2023-07-13T02:28:51;4.30;;;2.00;;
44428;SDS011;30134;47.866;-4.222;2023-07-13T02:31:17;4.00;;;2.00;;
44428;SDS011;30134;47.866;-4.222;2023-07-13T02:33:43;3.22;;;1.83;;
44428;SDS011;30134;47.866;-4.222;2023-07-13T02:36:10;4.53;;;1.90;;
44428;SDS011;30134;47.866;-4.222;2023-07-13T02:38:36;4.03;;;2.35;;
44428;SDS011;30134;47.866;-4.222;2023-07-13T02:41:03;4.00;;;2.05;;
44428;SDS011;30134;47.866;-4.222;2023-07-13T02:43:30;7.38;;;2.15;;
44428;SDS011;30134;47.866;-4.222;2023-07-13T02:45:58;4.25;;;2.13;;
44428;SDS011;30134;47.866;-4.222;2023-07-13T02:48:34;4.03;;;2.05;;
44428;SDS011;30134;47.866;-4.222;2023-07-13T02:51:02;3.85;;;2.08;;
44428;SDS011;30134;47.866;-4.222;2023-07-13T02:53:29;3.45;;;1.75;;
44428;SDS011;30134;47.866;-4.222;2023-07-13T02:55:55;4.25;;;1.80;;
44428;SDS011;30134;47.866;-4.222;2023-07-13T02:58:21;3.83;;;1.77;;
44428;SDS011;30134;47.866;-4.222;2023-07-13T03:00:48;11.20;;;1.90;;
44428;SDS011;30134;47.866;-4.222;2023-07-13T03:03:15;3.65;;;1.70;;
44428;SDS011;30134;47.866;-4.222;2023-07-13T03:05:42;5.28;;;2.13;;
44428;SDS011;30134;47.866;-4.222;2023-07-13T03:08:14;2.67;;;1.70;;
44428;SDS011;30134;47.866;-4.222;2023-07-13T03:10:40;6.40;;;2.10;;
44428;SDS011;30134;47.866;-4.222;2023-07-13T03:13:06;4.22;;;1.90;;
44428;SDS011;30134;47.866;-4.222;2023-07-13T03:15:32;4.68;;;1.90;;
44428;SDS011;30134;47.866;-4.222;2023-07-13T03:17:59;5.45;;;2.03;;
44428;SDS011;30134;47.866;-4.222;2023-07-13T03:20:24;4.60;;;2.25;;
44428;SDS011;30134;47.866;-4.222;2023-07-13T03:22:51;4.38;;;2.00;;
44428;SDS011;30134;47.866;-4.222;2023-07-13T03:25:17;4.57;;;1.95;;
44428;SDS011;30134;47.866;-4.222;2023-07-13T03:27:43;4.30;;;2.17;;
44428;SDS011;30134;47.866;-4.222;2023-07-13T03:30:09;6.57;;;1.98;;
44428;SDS011;30134;47.866;-4.222;2023-07-13T03:32:35;3.83;;;1.95;;
44428;SDS011;30134;47.866;-4.222;2023-07-13T03:35:01;6.93;;;2.13;;
44428;SDS011;30134;47.866;-4.222;2023-07-13T03:37:27;3.30;;;1.80;;
44428;SDS011;30134;47.866;-4.222;2023-07-13T03:39:53;5.10;;;2.22;;
44428;SDS011;30134;47.866;-4.222;2023-07-13T03:42:19;4.90;;;2.00;;
44428;SDS011;30134;47.866;-4.222;2023-07-13T03:44:45;4.53;;;1.88;;
44428;SDS011;30134;47.866;-4.222;2023-07-13T03:47:17;5.40;;;2.08;;
44428;SDS011;30134;47.866;-4.222;2023-07-13T03:49:43;3.35;;;1.90;;
44428;SDS011;30134;47.866;-4.222;2023-07-13T03:52:11;4.45;;;2.08;;
44428;SDS011;30134;47.866;-4.222;2023-07-13T03:54:38;4.85;;;1.90;;
44428;SDS011;30134;47.866;-4.222;2023-07-13T03:57:04;13.88;;;7.25;;
44428;SDS011;30134;47.866;-4.222;2023-07-13T03:59:31;73.13;;;48.05;;
44428;SDS011;30134;47.866;-4.222;2023-07-13T04:01:57;108.95;;;73.30;;
44428;SDS011;30134;47.866;-4.222;2023-07-13T04:04:23;130.70;;;90.60;;
44428;SDS011;30134;47.866;-4.222;2023-07-13T04:06:49;99.70;;;67.30;;
44428;SDS011;30134;47.866;-4.222;2023-07-13T04:09:17;83.72;;;54.97;;
44428;SDS011;30134;47.866;-4.222;2023-07-13T04:11:43;73.80;;;49.75;;
44428;SDS011;30134;47.866;-4.222;2023-07-13T04:14:09;63.40;;;44.15;;
44428;SDS011;30134;47.866;-4.222;2023-07-13T04:16:36;65.97;;;43.88;;
44428;SDS011;30134;47.866;-4.222;2023-07-13T04:19:02;60.10;;;39.88;;
44428;SDS011;30134;47.866;-4.222;2023-07-13T04:21:28;58.92;;;38.60;;
44428;SDS011;30134;47.866;-4.222;2023-07-13T04:23:56;52.75;;;37.70;;
44428;SDS011;30134;47.866;-4.222;2023-07-13T04:26:22;48.13;;;33.28;;
44428;SDS011;30134;47.866;-4.222;2023-07-13T04:28:49;47.90;;;33.38;;
44428;SDS011;30134;47.866;-4.222;2023-07-13T04:31:16;47.30;;;32.67;;
44428;SDS011;30134;47.866;-4.222;2023-07-13T04:33:43;46.13;;;32.40;;
44428;SDS011;30134;47.866;-4.222;2023-07-13T04:36:09;43.88;;;30.95;;
44428;SDS011;30134;47.866;-4.222;2023-07-13T04:38:36;44.33;;;29.20;;
44428;SDS011;30134;47.866;-4.222;2023-07-13T04:41:04;42.72;;;28.90;;
44428;SDS011;30134;47.866;-4.222;2023-07-13T04:43:32;38.55;;;26.60;;
44428;SDS011;30134;47.866;-4.222;2023-07-13T04:46:03;36.63;;;26.15;;
44428;SDS011;30134;47.866;-4.222;2023-07-13T04:48:36;36.38;;;24.40;;
44428;SDS011;30134;47.866;-4.222;2023-07-13T04:51:04;34.78;;;23.80;;
44428;SDS011;30134;47.866;-4.222;2023-07-13T04:53:32;33.28;;;23.25;;
44428;SDS011;30134;47.866;-4.222;2023-07-13T04:55:59;32.03;;;22.27;;
44428;SDS011;30134;47.866;-4.222;2023-07-13T04:58:26;31.98;;;22.15;;
44428;SDS011;30134;47.866;-4.222;2023-07-13T05:00:53;28.48;;;20.25;;
44428;SDS011;30134;47.866;-4.222;2023-07-13T05:03:25;28.85;;;20.38;;
44428;SDS011;30134;47.866;-4.222;2023-07-13T05:05:56;27.23;;;19.60;;
44428;SDS011;30134;47.866;-4.222;2023-07-13T05:08:28;28.30;;;17.88;;
44428;SDS011;30134;47.866;-4.222;2023-07-13T05:10:54;24.75;;;17.30;;
44428;SDS011;30134;47.866;-4.222;2023-07-13T05:13:20;27.52;;;18.25;;
44428;SDS011;30134;47.866;-4.222;2023-07-13T05:15:55;22.52;;;15.90;;
44428;SDS011;30134;47.866;-4.222;2023-07-13T05:18:23;26.13;;;16.85;;
44428;SDS011;30134;47.866;-4.222;2023-07-13T05:21:00;25.35;;;16.10;;
44428;SDS011;30134;47.866;-4.222;2023-07-13T05:23:29;21.95;;;15.02;;
44428;SDS011;30134;47.866;-4.222;2023-07-13T05:25:57;20.85;;;14.20;;
44428;SDS011;30134;47.866;-4.222;2023-07-13T05:28:23;20.20;;;14.23;;
44428;SDS011;30134;47.866;-4.222;2023-07-13T05:30:51;19.38;;;13.30;;
44428;SDS011;30134;47.866;-4.222;2023-07-13T05:33:17;18.92;;;12.68;;
44428;SDS011;30134;47.866;-4.222;2023-07-13T05:35:43;18.85;;;12.70;;
44428;SDS011;30134;47.866;-4.222;2023-07-13T05:38:09;16.65;;;11.75;;
44428;SDS011;30134;47.866;-4.222;2023-07-13T05:40:35;16.60;;;12.65;;
44428;SDS011;30134;47.866;-4.222;2023-07-13T05:43:01;15.57;;;11.40;;
44428;SDS011;30134;47.866;-4.222;2023-07-13T05:45:27;17.65;;;11.45;;
44428;SDS011;30134;47.866;-4.222;2023-07-13T05:47:53;17.20;;;11.20;;
44428;SDS011;30134;47.866;-4.222;2023-07-13T05:50:19;17.67;;;10.68;;
44428;SDS011;30134;47.866;-4.222;2023-07-13T05:52:45;14.13;;;9.73;;
44428;SDS011;30134;47.866;-4.222;2023-07-13T05:55:11;14.98;;;9.95;;
44428;SDS011;30134;47.866;-4.222;2023-07-13T05:57:36;14.20;;;9.02;;
44428;SDS011;30134;47.866;-4.222;2023-07-13T06:00:02;13.23;;;9.18;;
44428;SDS011;30134;47.866;-4.222;2023-07-13T06:02:29;13.85;;;9.38;;
44428;SDS011;30134;47.866;-4.222;2023-07-13T06:04:55;12.23;;;8.18;;
44428;SDS011;30134;47.866;-4.222;2023-07-13T06:07:27;13.00;;;8.65;;
44428;SDS011;30134;47.866;-4.222;2023-07-13T06:09:53;12.35;;;8.15;;
44428;SDS011;30134;47.866;-4.222;2023-07-13T06:12:19;10.93;;;7.72;;
44428;SDS011;30134;47.866;-4.222;2023-07-13T06:14:45;12.63;;;8.15;;
44428;SDS011;30134;47.866;-4.222;2023-07-13T06:17:11;12.07;;;7.70;;
44428;SDS011;30134;47.866;-4.222;2023-07-13T06:19:37;12.85;;;7.43;;
44428;SDS011;30134;47.866;-4.222;2023-07-13T06:22:03;11.15;;;7.28;;
44428;SDS011;30134;47.866;-4.222;2023-07-13T06:24:29;11.20;;;6.90;;
44428;SDS011;30134;47.866;-4.222;2023-07-13T06:26:58;12.80;;;6.90;;
44428;SDS011;30134;47.866;-4.222;2023-07-13T06:29:24;10.82;;;7.15;;
44428;SDS011;30134;47.866;-4.222;2023-07-13T06:31:50;9.00;;;6.13;;
44428;SDS011;30134;47.866;-4.222;2023-07-13T06:34:17;13.02;;;6.55;;
44428;SDS011;30134;47.866;-4.222;2023-07-13T06:36:43;9.27;;;6.22;;
44428;SDS011;30134;47.866;-4.222;2023-07-13T06:39:09;9.20;;;5.85;;
44428;SDS011;30134;47.866;-4.222;2023-07-13T06:41:35;9.32;;;5.28;;
44428;SDS011;30134;47.866;-4.222;2023-07-13T06:44:03;9.20;;;5.38;;
44428;SDS011;30134;47.866;-4.222;2023-07-13T06:46:30;7.35;;;5.00;;
44428;SDS011;30134;47.866;-4.222;2023-07-13T06:48:56;9.35;;;5.25;;
44428;SDS011;30134;47.866;-4.222;2023-07-13T06:51:22;8.70;;;5.28;;
44428;SDS011;30134;47.866;-4.222;2023-07-13T06:53:48;6.70;;;5.05;;
44428;SDS011;30134;47.866;-4.222;2023-07-13T06:56:15;8.00;;;4.82;;
44428;SDS011;30134;47.866;-4.222;2023-07-13T06:58:41;6.63;;;4.15;;
44428;SDS011;30134;47.866;-4.222;2023-07-13T07:01:07;6.50;;;4.25;;
44428;SDS011;30134;47.866;-4.222;2023-07-13T07:03:33;7.78;;;4.15;;
44428;SDS011;30134;47.866;-4.222;2023-07-13T07:06:00;6.72;;;3.78;;
44428;SDS011;30134;47.866;-4.222;2023-07-13T07:08:43;9.30;;;4.90;;
44428;SDS011;30134;47.866;-4.222;2023-07-13T07:11:13;5.85;;;3.97;;
44428;SDS011;30134;47.866;-4.222;2023-07-13T07:13:44;7.28;;;3.90;;
44428;SDS011;30134;47.866;-4.222;2023-07-13T07:16:10;4.88;;;3.50;;
44428;SDS011;30134;47.866;-4.222;2023-07-13T07:18:37;5.82;;;3.75;;
44428;SDS011;30134;47.866;-4.222;2023-07-13T07:21:03;6.43;;;3.70;;
44428;SDS011;30134;47.866;-4.222;2023-07-13T07:23:29;7.85;;;4.10;;
44428;SDS011;30134;47.866;-4.222;2023-07-13T07:25:55;5.97;;;3.65;;
44428;SDS011;30134;47.866;-4.222;2023-07-13T07:28:22;9.45;;;3.72;;
44428;SDS011;30134;47.866;-4.222;2023-07-13T07:30:48;5.70;;;3.10;;
44428;SDS011;30134;47.866;-4.222;2023-07-13T07:33:17;4.65;;;3.10;;
44428;SDS011;30134;47.866;-4.222;2023-07-13T07:35:43;5.93;;;3.13;;
44428;SDS011;30134;47.866;-4.222;2023-07-13T07:38:09;7.65;;;3.45;;
44428;SDS011;30134;47.866;-4.222;2023-07-13T07:40:38;5.53;;;3.40;;
44428;SDS011;30134;47.866;-4.222;2023-07-13T07:43:09;6.25;;;3.10;;
44428;SDS011;30134;47.866;-4.222;2023-07-13T07:45:37;5.47;;;2.97;;
44428;SDS011;30134;47.866;-4.222;2023-07-13T07:48:04;6.32;;;3.25;;
44428;SDS011;30134;47.866;-4.222;2023-07-13T07:50:31;6.40;;;3.15;;
44428;SDS011;30134;47.866;-4.222;2023-07-13T07:52:58;4.90;;;2.55;;
44428;SDS011;30134;47.866;-4.222;2023-07-13T07:55:24;3.83;;;2.53;;
44428;SDS011;30134;47.866;-4.222;2023-07-13T07:57:53;4.55;;;2.50;;
44428;SDS011;30134;47.866;-4.222;2023-07-13T08:00:21;4.80;;;2.58;;
44428;SDS011;30134;47.866;-4.222;2023-07-13T08:02:47;6.55;;;3.10;;
44428;SDS011;30134;47.866;-4.222;2023-07-13T08:05:14;5.82;;;2.85;;
44428;SDS011;30134;47.866;-4.222;2023-07-13T08:07:40;5.68;;;2.53;;
44428;SDS011;30134;47.866;-4.222;2023-07-13T08:10:06;4.70;;;2.92;;
44428;SDS011;30134;47.866;-4.222;2023-07-13T08:12:37;4.90;;;2.20;;
44428;SDS011;30134;47.866;-4.222;2023-07-13T08:15:06;5.27;;;2.30;;
44428;SDS011;30134;47.866;-4.222;2023-07-13T08:17:37;4.88;;;2.53;;
44428;SDS011;30134;47.866;-4.222;2023-07-13T08:20:04;5.30;;;2.42;;
44428;SDS011;30134;47.866;-4.222;2023-07-13T08:22:30;3.40;;;2.10;;
44428;SDS011;30134;47.866;-4.222;2023-07-13T08:24:59;4.15;;;2.08;;
44428;SDS011;30134;47.866;-4.222;2023-07-13T08:27:26;5.60;;;2.20;;
44428;SDS011;30134;47.866;-4.222;2023-07-13T08:29:56;4.43;;;2.33;;
44428;SDS011;30134;47.866;-4.222;2023-07-13T08:32:23;5.50;;;2.13;;
44428;SDS011;30134;47.866;-4.222;2023-07-13T08:34:49;4.65;;;2.20;;
44428;SDS011;30134;47.866;-4.222;2023-07-13T08:37:17;8.15;;;2.30;;
44428;SDS011;30134;47.866;-4.222;2023-07-13T08:39:43;6.72;;;2.75;;
44428;SDS011;30134;47.866;-4.222;2023-07-13T08:42:21;5.20;;;2.00;;
44428;SDS011;30134;47.866;-4.222;2023-07-13T08:45:21;5.47;;;2.25;;
44428;SDS011;30134;47.866;-4.222;2023-07-13T08:48:03;5.13;;;2.47;;
44428;SDS011;30134;47.866;-4.222;2023-07-13T08:53:46;4.80;;;2.20;;
44428;SDS011;30134;47.866;-4.222;2023-07-13T08:56:19;4.88;;;2.20;;
44428;SDS011;30134;47.866;-4.222;2023-07-13T08:58:50;5.15;;;2.60;;
44428;SDS011;30134;47.866;-4.222;2023-07-13T09:04:18;3.60;;;2.13;;
44428;SDS011;30134;47.866;-4.222;2023-07-13T09:15:34;6.15;;;2.13;;
44428;SDS011;30134;47.866;-4.222;2023-07-13T09:18:14;5.82;;;1.95;;
44428;SDS011;30134;47.866;-4.222;2023-07-13T09:23:47;6.25;;;2.28;;
44428;SDS011;30134;47.866;-4.222;2023-07-13T09:28:57;10.95;;;2.72;;
44428;SDS011;30134;47.866;-4.222;2023-07-13T09:34:06;6.50;;;2.35;;
44428;SDS011;30134;47.866;-4.222;2023-07-13T09:36:36;8.73;;;2.45;;
44428;SDS011;30134;47.866;-4.222;2023-07-13T09:39:09;8.35;;;2.42;;
44428;SDS011;30134;47.866;-4.222;2023-07-13T09:42:35;13.05;;;3.15;;
44428;SDS011;30134;47.866;-4.222;2023-07-13T09:44:37;12.82;;;3.20;;
44428;SDS011;30134;47.866;-4.222;2023-07-13T09:50:01;13.23;;;2.60;;
44428;SDS011;30134;47.866;-4.222;2023-07-13T09:52:44;7.88;;;2.72;;
44428;SDS011;30134;47.866;-4.222;2023-07-13T09:55:45;8.45;;;2.53;;
44428;SDS011;30134;47.866;-4.222;2023-07-13T09:58:09;8.82;;;2.95;;
44428;SDS011;30134;47.866;-4.222;2023-07-13T10:00:54;6.68;;;2.08;;
44428;SDS011;30134;47.866;-4.222;2023-07-13T10:03:27;11.65;;;2.40;;
44428;SDS011;30134;47.866;-4.222;2023-07-13T10:06:13;10.63;;;2.22;;
44428;SDS011;30134;47.866;-4.222;2023-07-13T10:08:44;9.70;;;2.60;;
44428;SDS011;30134;47.866;-4.222;2023-07-13T10:11:26;11.50;;;3.40;;
44428;SDS011;30134;47.866;-4.222;2023-07-13T10:13:58;11.68;;;5.68;;
44428;SDS011;30134;47.866;-4.222;2023-07-13T10:16:34;13.50;;;5.70;;
44428;SDS011;30134;47.866;-4.222;2023-07-13T10:19:05;10.00;;;4.28;;
44428;SDS011;30134;47.866;-4.222;2023-07-13T10:21:57;10.02;;;3.85;;
44428;SDS011;30134;47.866;-4.222;2023-07-13T10:24:27;11.13;;;3.47;;
44428;SDS011;30134;47.866;-4.222;2023-07-13T10:29:46;7.88;;;3.70;;
44428;SDS011;30134;47.866;-4.222;2023-07-13T10:32:33;9.17;;;3.80;;
44428;SDS011;30134;47.866;-4.222;2023-07-13T10:35:00;10.20;;;3.63;;
44428;SDS011;30134;47.866;-4.222;2023-07-13T10:37:33;5.90;;;2.70;;
44428;SDS011;30134;47.866;-4.222;2023-07-13T10:41:03;7.90;;;3.08;;
44428;SDS011;30134;47.866;-4.222;2023-07-13T10:43:36;6.70;;;2.38;;
44428;SDS011;30134;47.866;-4.222;2023-07-13T10:46:18;7.53;;;2.40;;
44428;SDS011;30134;47.866;-4.222;2023-07-13T10:48:52;4.28;;;2.00;;
44428;SDS011;30134;47.866;-4.222;2023-07-13T10:51:29;7.07;;;2.92;;
44428;SDS011;30134;47.866;-4.222;2023-07-13T10:56:43;10.57;;;2.60;;
44428;SDS011;30134;47.866;-4.222;2023-07-13T10:59:12;6.32;;;2.72;;
44428;SDS011;30134;47.866;-4.222;2023-07-13T11:01:55;6.93;;;3.28;;
44428;SDS011;30134;47.866;-4.222;2023-07-13T11:04:22;9.45;;;4.10;;
44428;SDS011;30134;47.866;-4.222;2023-07-13T11:06:53;10.13;;;5.93;;
44428;SDS011;30134;47.866;-4.222;2023-07-13T11:09:32;13.90;;;4.88;;
44428;SDS011;30134;47.866;-4.222;2023-07-13T11:12:08;8.82;;;3.55;;
44428;SDS011;30134;47.866;-4.222;2023-07-13T11:22:43;9.60;;;4.82;;
44428;SDS011;30134;47.866;-4.222;2023-07-13T11:25:41;8.07;;;4.13;;
44428;SDS011;30134;47.866;-4.222;2023-07-13T11:30:38;8.10;;;2.17;;
44428;SDS011;30134;47.866;-4.222;2023-07-13T11:33:24;5.78;;;2.50;;
44428;SDS011;30134;47.866;-4.222;2023-07-13T11:36:06;6.95;;;2.65;;
44428;SDS011;30134;47.866;-4.222;2023-07-13T11:39:31;5.88;;;2.40;;
44428;SDS011;30134;47.866;-4.222;2023-07-13T11:41:44;4.88;;;2.00;;
44428;SDS011;30134;47.866;-4.222;2023-07-13T11:44:21;4.20;;;2.40;;
44428;SDS011;30134;47.866;-4.222;2023-07-13T11:46:50;7.78;;;2.10;;
44428;SDS011;30134;47.866;-4.222;2023-07-13T11:49:20;5.88;;;2.20;;
44428;SDS011;30134;47.866;-4.222;2023-07-13T11:51:49;7.38;;;2.25;;
44428;SDS011;30134;47.866;-4.222;2023-07-13T11:54:32;4.05;;;1.52;;
44428;SDS011;30134;47.866;-4.222;2023-07-13T11:59:49;3.17;;;1.63;;
44428;SDS011;30134;47.866;-4.222;2023-07-13T12:02:39;7.63;;;1.92;;
44428;SDS011;30134;47.866;-4.222;2023-07-13T12:05:09;11.80;;;6.05;;
44428;SDS011;30134;47.866;-4.222;2023-07-13T12:07:41;9.70;;;3.80;;
44428;SDS011;30134;47.866;-4.222;2023-07-13T12:12:58;7.90;;;2.20;;
44428;SDS011;30134;47.866;-4.222;2023-07-13T12:15:39;7.38;;;1.80;;
44428;SDS011;30134;47.866;-4.222;2023-07-13T12:18:18;6.05;;;2.42;;
44428;SDS011;30134;47.866;-4.222;2023-07-13T12:20:47;8.82;;;2.42;;
44428;SDS011;30134;47.866;-4.222;2023-07-13T12:23:20;5.15;;;2.00;;
44428;SDS011;30134;47.866;-4.222;2023-07-13T12:26:01;5.00;;;1.95;;
44428;SDS011;30134;47.866;-4.222;2023-07-13T12:31:03;5.78;;;2.00;;
44428;SDS011;30134;47.866;-4.222;2023-07-13T12:33:32;9.13;;;2.22;;
44428;SDS011;30134;47.866;-4.222;2023-07-13T12:36:00;5.30;;;2.10;;
44428;SDS011;30134;47.866;-4.222;2023-07-13T12:38:30;5.20;;;2.13;;
44428;SDS011;30134;47.866;-4.222;2023-07-13T12:40:57;7.22;;;2.42;;
44428;SDS011;30134;47.866;-4.222;2023-07-13T12:43:23;25.02;;;13.43;;
44428;SDS011;30134;47.866;-4.222;2023-07-13T12:48:28;114.63;;;61.60;;
44428;SDS011;30134;47.866;-4.222;2023-07-13T12:50:55;48.90;;;30.52;;
44428;SDS011;30134;47.866;-4.222;2023-07-13T12:53:29;54.42;;;32.20;;
44428;SDS011;30134;47.866;-4.222;2023-07-13T12:55:59;55.97;;;34.30;;
44428;SDS011;30134;47.866;-4.222;2023-07-13T12:58:29;48.40;;;30.23;;
44428;SDS011;30134;47.866;-4.222;2023-07-13T13:03:39;35.40;;;19.92;;
44428;SDS011;30134;47.866;-4.222;2023-07-13T13:08:51;39.55;;;21.90;;
44428;SDS011;30134;47.866;-4.222;2023-07-13T13:11:20;31.10;;;17.48;;
44428;SDS011;30134;47.866;-4.222;2023-07-13T13:13:48;25.00;;;14.85;;
44428;SDS011;30134;47.866;-4.222;2023-07-13T13:16:31;23.55;;;14.68;;
44428;SDS011;30134;47.866;-4.222;2023-07-13T13:19:21;23.75;;;14.35;;
44428;SDS011;30134;47.866;-4.222;2023-07-13T13:21:51;21.08;;;12.38;;
44428;SDS011;30134;47.866;-4.222;2023-07-13T13:24:21;17.45;;;10.52;;
44428;SDS011;30134;47.866;-4.222;2023-07-13T13:26:50;17.25;;;10.57;;
44428;SDS011;30134;47.866;-4.222;2023-07-13T13:29:21;19.00;;;10.20;;
44428;SDS011;30134;47.866;-4.222;2023-07-13T13:34:16;16.33;;;8.75;;
44428;SDS011;30134;47.866;-4.222;2023-07-13T13:36:44;13.00;;;7.82;;
44428;SDS011;30134;47.866;-4.222;2023-07-13T13:44:10;10.20;;;6.07;;
44428;SDS011;30134;47.866;-4.222;2023-07-13T13:46:43;11.77;;;5.63;;
44428;SDS011;30134;47.866;-4.222;2023-07-13T13:49:17;11.23;;;5.10;;
44428;SDS011;30134;47.866;-4.222;2023-07-13T13:51:49;13.55;;;5.25;;
44428;SDS011;30134;47.866;-4.222;2023-07-13T13:54:17;8.60;;;4.57;;
44428;SDS011;30134;47.866;-4.222;2023-07-13T13:56:47;8.68;;;4.57;;
44428;SDS011;30134;47.866;-4.222;2023-07-13T13:59:15;8.52;;;4.90;;
44428;SDS011;30134;47.866;-4.222;2023-07-13T14:01:43;8.13;;;4.40;;
44428;SDS011;30134;47.866;-4.222;2023-07-13T14:04:15;6.53;;;4.05;;
44428;SDS011;30134;47.866;-4.222;2023-07-13T14:06:47;6.35;;;3.42;;
44428;SDS011;30134;47.866;-4.222;2023-07-13T14:09:15;4.95;;;2.80;;
44428;SDS011;30134;47.866;-4.222;2023-07-13T14:11:43;6.07;;;3.03;;
44428;SDS011;30134;47.866;-4.222;2023-07-13T14:14:19;5.38;;;3.10;;
44428;SDS011;30134;47.866;-4.222;2023-07-13T14:16:49;8.30;;;3.40;;
44428;SDS011;30134;47.866;-4.222;2023-07-13T14:19:20;4.72;;;2.85;;
44428;SDS011;30134;47.866;-4.222;2023-07-13T14:21:46;5.15;;;3.00;;
44428;SDS011;30134;47.866;-4.222;2023-07-13T14:24:18;7.78;;;3.10;;
44428;SDS011;30134;47.866;-4.222;2023-07-13T14:26:45;8.82;;;3.00;;
44428;SDS011;30134;47.866;-4.222;2023-07-13T14:29:16;5.85;;;2.65;;
44428;SDS011;30134;47.866;-4.222;2023-07-13T14:31:44;5.63;;;2.83;;
44428;SDS011;30134;47.866;-4.222;2023-07-13T14:34:10;4.85;;;2.42;;
44428;SDS011;30134;47.866;-4.222;2023-07-13T14:36:55;5.25;;;2.92;;
44428;SDS011;30134;47.866;-4.222;2023-07-13T14:39:24;5.90;;;2.50;;
44428;SDS011;30134;47.866;-4.222;2023-07-13T14:41:51;4.50;;;2.53;;
44428;SDS011;30134;47.866;-4.222;2023-07-13T14:44:21;3.42;;;2.17;;
44428;SDS011;30134;47.866;-4.222;2023-07-13T14:46:56;4.18;;;2.38;;
44428;SDS011;30134;47.866;-4.222;2023-07-13T14:51:56;4.97;;;2.20;;
44428;SDS011;30134;47.866;-4.222;2023-07-13T14:54:35;3.50;;;1.88;;
44428;SDS011;30134;47.866;-4.222;2023-07-13T14:57:08;7.68;;;2.28;;
44428;SDS011;30134;47.866;-4.222;2023-07-13T14:59:43;5.43;;;2.20;;
44428;SDS011;30134;47.866;-4.222;2023-07-13T15:02:44;3.50;;;2.03;;
44428;SDS011;30134;47.866;-4.222;2023-07-13T15:05:08;5.03;;;2.00;;
44428;SDS011;30134;47.866;-4.222;2023-07-13T15:07:46;4.88;;;2.05;;
44428;SDS011;30134;47.866;-4.222;2023-07-13T15:12:44;6.90;;;2.30;;
44428;SDS011;30134;47.866;-4.222;2023-07-13T15:15:11;4.80;;;2.20;;
44428;SDS011;30134;47.866;-4.222;2023-07-13T15:17:39;3.30;;;1.90;;
44428;SDS011;30134;47.866;-4.222;2023-07-13T15:20:19;5.47;;;2.17;;
44428;SDS011;30134;47.866;-4.222;2023-07-13T15:22:55;4.90;;;2.22;;
44428;SDS011;30134;47.866;-4.222;2023-07-13T15:25:23;6.22;;;2.45;;
44428;SDS011;30134;47.866;-4.222;2023-07-13T15:27:55;4.95;;;2.00;;
44428;SDS011;30134;47.866;-4.222;2023-07-13T15:30:27;5.18;;;2.05;;
44428;SDS011;30134;47.866;-4.222;2023-07-13T15:33:14;5.50;;;2.38;;
44428;SDS011;30134;47.866;-4.222;2023-07-13T15:35:49;5.80;;;2.05;;
44428;SDS011;30134;47.866;-4.222;2023-07-13T15:38:28;4.25;;;2.13;;
44428;SDS011;30134;47.866;-4.222;2023-07-13T15:40:59;7.05;;;2.45;;
44428;SDS011;30134;47.866;-4.222;2023-07-13T15:43:25;5.80;;;2.28;;
44428;SDS011;30134;47.866;-4.222;2023-07-13T15:46:05;6.72;;;2.38;;
44428;SDS011;30134;47.866;-4.222;2023-07-13T15:48:31;5.32;;;2.20;;
44428;SDS011;30134;47.866;-4.222;2023-07-13T15:50:59;6.40;;;2.25;;
44428;SDS011;30134;47.866;-4.222;2023-07-13T15:53:32;5.47;;;2.28;;
44428;SDS011;30134;47.866;-4.222;2023-07-13T15:56:00;8.18;;;2.35;;
44428;SDS011;30134;47.866;-4.222;2023-07-13T15:58:35;4.32;;;2.00;;